Country
Station

 

Weather  for  Glasgow, Glasgow International Airport  -  United States    United States

  
14 °C (57 °F)
    
 
 

Current METAR for Glasgow, Glasgow International Airport is :

KGGW 192053Z AUTO 11019G25KT 10SM CLR 14/03 A3020 RMK AO2 PK WND 12027/2019 SLP241 T01440028 58023

 

This is a report for Glasgow, Glasgow International Airport - United States.
 
The report was made 35 minutes ago, at 20:53 UTC .
The wind was blowing at a speed of 9.8 meters per second (21.9 miles per hour) with gusts up to 12.9 meters per second (28.8 miles per hour) from east/southeast (110°).
 
The temperature was 14 °C (57 °F), with a dew-point at 3 °C (37 °F).
The atmospheric pressure was 1023 hPa (30.20 inHg).
The relative humidity was 47.4%.
 
The sky was clear.
 
The overall visibility was 16.1 kilometers (10.0 miles).
 

 
 
 
 

Country :   A   B   C   D   E   F   G   H   I   J   K   L   M   N   O   P   Q   R   S   T   U   V   W   Y   Z

 

Site Info  |  Disclaimer  |  Credits  |  Privacy
Contact us  |  Add to favorites
© 2013-2018 METARs - All rights reserved